Time;durP1;ratioP1;P1;durP2;ratioP2;P2;SDS_P1;SDS_P2;PMS_P1;PMS_P2;Temp;Humidity;BMP_temperature;BMP_pressure;BME280_temperature;BME280_humidity;BME280_pressure;Samples;Min_cycle;Max_cycle;Signal;HPM_P1;HPM_P2
2024/04/05 00:00:46;;;;;;;0.30;0.30;;;7.20;99.90;;;;;;5068989;28;20178;-66
2024/04/05 00:03:11;;;;;;;0.47;0.47;;;7.20;99.90;;;;;;5069419;28;20218;-66
2024/04/05 00:05:37;;;;;;;0.30;0.30;;;7.20;99.90;;;;;;5069222;28;20178;-66
2024/04/05 00:08:03;;;;;;;0.20;0.20;;;7.20;99.90;;;;;;5069004;28;20198;-66
2024/04/05 00:10:29;;;;;;;0.10;0.10;;;7.20;99.90;;;;;;5068714;28;20688;-66
2024/04/05 00:12:55;;;;;;;0.17;0.17;;;7.30;99.90;;;;;;5069357;28;20198;-66
2024/04/05 00:15:21;;;;;;;0.20;0.20;;;7.30;99.90;;;;;;5069767;28;20174;-66
2024/04/05 00:17:47;;;;;;;0.17;0.17;;;7.30;99.90;;;;;;5073269;28;20685;-66
2024/04/05 00:20:15;;;;;;;0.37;0.33;;;7.40;99.90;;;;;;5072494;28;20202;-66
2024/04/05 00:22:41;;;;;;;0.10;0.10;;;7.40;99.90;;;;;;5076819;28;20383;-67
2024/04/05 00:25:06;;;;;;;0.40;0.37;;;7.40;99.90;;;;;;5081559;28;20191;-66
2024/04/05 00:27:32;;;;;;;0.20;0.20;;;7.50;99.90;;;;;;5072940;28;20210;-66
2024/04/05 00:30:00;;;;;;;0.40;0.40;;;7.60;99.90;;;;;;5073066;28;20190;-67
2024/04/05 00:32:26;;;;;;;0.47;0.30;;;7.60;99.90;;;;;;5072929;28;20190;-66
2024/04/05 00:34:52;;;;;;;0.30;0.30;;;7.60;99.90;;;;;;5072910;28;20613;-66
2024/04/05 00:37:17;;;;;;;0.40;0.40;;;7.70;99.90;;;;;;5072545;28;20209;-67
2024/04/05 00:39:43;;;;;;;0.30;0.30;;;7.70;99.90;;;;;;5072531;28;20722;-67
2024/04/05 00:42:08;;;;;;;0.40;0.30;;;7.70;99.90;;;;;;5073196;28;20202;-66
2024/04/05 00:44:34;;;;;;;0.40;0.20;;;7.70;99.90;;;;;;5080762;28;20506;-67
2024/04/05 00:47:00;;;;;;;0.20;0.20;;;7.80;99.90;;;;;;5072719;28;20319;-66
2024/04/05 00:49:27;;;;;;;0.20;0.20;;;7.70;99.90;;;;;;5072342;28;20515;-67
2024/04/05 00:51:54;;;;;;;1.13;0.60;;;7.70;99.90;;;;;;5072642;28;20228;-67
2024/04/05 00:54:20;;;;;;;0.60;0.60;;;7.70;99.90;;;;;;5072516;28;20186;-67
2024/04/05 00:56:47;;;;;;;1.97;0.70;;;7.80;99.90;;;;;;5072442;28;20191;-67
2024/04/05 00:59:15;;;;;;;0.20;0.20;;;7.90;99.90;;;;;;5071939;28;20206;-67
2024/04/05 01:01:41;;;;;;;0.40;0.40;;;7.80;99.90;;;;;;5072533;28;20577;-67
2024/04/05 01:04:07;;;;;;;0.13;0.13;;;7.80;99.90;;;;;;5072179;28;20339;-67
2024/04/05 01:06:32;;;;;;;0.10;0.10;;;7.80;99.90;;;;;;5072722;28;20284;-67
2024/04/05 01:08:58;;;;;;;1.27;0.30;;;7.80;99.90;;;;;;5070452;28;20650;-67
2024/04/05 01:11:25;;;;;;;0.20;0.20;;;7.80;99.90;;;;;;5072223;28;20187;-66
2024/04/05 01:13:51;;;;;;;0.70;0.50;;;7.90;99.90;;;;;;5072734;28;20179;-67
2024/04/05 01:16:16;;;;;;;0.20;0.20;;;7.90;99.90;;;;;;5072069;28;20175;-67
2024/04/05 01:18:43;;;;;;;0.50;0.40;;;8.00;99.90;;;;;;5071990;28;20210;-66
2024/04/05 01:21:09;;;;;;;0.33;0.27;;;8.00;99.90;;;;;;5071419;28;20190;-66
2024/04/05 01:23:42;;;;;;;0.20;0.20;;;8.00;99.90;;;;;;5072055;28;20206;-67
2024/04/05 01:26:08;;;;;;;2.63;0.77;;;7.90;99.90;;;;;;5072054;28;20201;-66
2024/04/05 01:28:34;;;;;;;1.10;0.70;;;8.00;99.90;;;;;;5070906;28;20202;-68
2024/04/05 01:30:59;;;;;;;0.27;0.27;;;8.00;99.90;;;;;;5071517;28;20678;-68
2024/04/05 01:33:25;;;;;;;1.40;0.93;;;8.10;99.90;;;;;;5080181;28;20190;-67
2024/04/05 01:35:51;;;;;;;0.63;0.63;;;8.00;99.90;;;;;;5070739;28;20190;-66
2024/04/05 01:38:16;;;;;;;1.30;0.43;;;8.10;99.90;;;;;;5071604;28;20230;-67
2024/04/05 01:40:42;;;;;;;1.27;0.70;;;8.00;99.90;;;;;;5071311;28;20182;-67
2024/04/05 01:43:07;;;;;;;0.20;0.20;;;8.00;99.90;;;;;;5071640;28;20321;-67
2024/04/05 01:45:33;;;;;;;0.50;0.50;;;7.90;99.90;;;;;;5063548;28;20210;-67
2024/04/05 01:47:58;;;;;;;0.23;0.23;;;7.90;99.90;;;;;;5071593;28;20213;-67
2024/04/05 01:50:24;;;;;;;0.30;0.30;;;7.90;99.90;;;;;;5070901;28;20586;-68
2024/04/05 01:52:49;;;;;;;0.60;0.37;;;7.90;99.90;;;;;;5071836;28;20206;-67
2024/04/05 01:55:15;;;;;;;1.90;0.17;;;7.90;99.90;;;;;;5071406;28;20183;-67
2024/04/05 01:57:41;;;;;;;0.10;0.10;;;8.00;99.90;;;;;;5071325;28;20205;-67
2024/04/05 02:00:08;;;;;;;0.20;0.20;;;7.90;99.90;;;;;;5070952;28;20583;-68
2024/04/05 02:02:33;;;;;;;0.20;0.20;;;8.00;99.90;;;;;;5063374;28;20232;-68
2024/04/05 02:04:59;;;;;;;0.20;0.20;;;8.00;99.90;;;;;;5071279;28;20198;-67
2024/04/05 02:07:27;;;;;;;0.20;0.20;;;8.00;99.90;;;;;;5071014;28;20634;-66
2024/04/05 02:09:53;;;;;;;0.27;0.27;;;8.10;99.90;;;;;;5070945;28;20214;-67
2024/04/05 02:12:19;;;;;;;0.20;0.20;;;8.10;99.90;;;;;;5071014;28;20599;-67
2024/04/05 02:14:45;;;;;;;0.40;0.40;;;8.10;99.90;;;;;;5069626;28;20192;-67
2024/04/05 02:17:11;;;;;;;0.20;0.20;;;8.10;99.90;;;;;;5079304;28;20198;-67
2024/04/05 02:19:37;;;;;;;0.10;0.10;;;8.20;99.90;;;;;;5070489;28;20217;-67
2024/04/05 02:22:05;;;;;;;0.43;0.43;;;8.20;99.90;;;;;;5071078;28;20182;-66
2024/04/05 02:24:30;;;;;;;0.77;0.50;;;8.20;99.90;;;;;;5069420;28;20213;-67
2024/04/05 02:26:56;;;;;;;0.23;0.23;;;8.10;99.90;;;;;;5077533;28;20573;-68
2024/04/05 02:29:22;;;;;;;0.10;0.10;;;8.10;99.90;;;;;;5071642;28;20639;-67
2024/04/05 02:31:47;;;;;;;0.37;0.30;;;8.10;99.90;;;;;;5076432;28;20596;-67
2024/04/05 02:34:13;;;;;;;0.20;0.20;;;8.10;99.90;;;;;;5073365;28;20668;-68
2024/04/05 02:36:38;;;;;;;0.40;0.30;;;8.10;99.90;;;;;;5070639;28;20228;-67
2024/04/05 02:39:07;;;;;;;0.10;0.10;;;8.10;99.90;;;;;;5070198;28;20182;-67
2024/04/05 02:41:33;;;;;;;0.73;0.50;;;8.10;99.90;;;;;;5070420;28;20741;-66
2024/04/05 02:43:59;;;;;;;0.20;0.20;;;8.10;99.90;;;;;;5070562;28;20206;-68
2024/04/05 02:46:25;;;;;;;0.10;0.10;;;8.10;99.90;;;;;;5070364;28;20193;-68
2024/04/05 02:48:51;;;;;;;0.10;0.10;;;8.10;99.90;;;;;;5070310;28;20206;-67
2024/04/05 02:51:18;;;;;;;0.20;0.20;;;8.10;99.90;;;;;;5070166;28;20191;-67
2024/04/05 02:53:44;;;;;;;0.47;0.43;;;8.20;99.90;;;;;;5070330;28;20186;-67
2024/04/05 02:56:10;;;;;;;0.10;0.10;;;8.20;99.90;;;;;;5070201;28;20186;-67
2024/04/05 02:58:36;;;;;;;0.23;0.23;;;8.20;99.90;;;;;;5069917;28;20217;-67
2024/04/05 03:01:02;;;;;;;2.20;1.53;;;8.20;99.90;;;;;;5069984;28;20182;-67
2024/04/05 03:03:28;;;;;;;0.10;0.10;;;8.20;99.90;;;;;;5070018;28;20228;-67
2024/04/05 03:05:53;;;;;;;0.30;0.30;;;8.20;99.90;;;;;;5069894;28;20182;-68
2024/04/05 03:08:19;;;;;;;0.20;0.20;;;8.10;99.90;;;;;;5069775;28;20236;-68
2024/04/05 03:10:44;;;;;;;0.27;0.27;;;8.10;99.90;;;;;;5068367;28;20179;-66
2024/04/05 03:13:10;;;;;;;0.30;0.30;;;8.10;99.90;;;;;;5078155;28;20673;-68
2024/04/05 03:15:35;;;;;;;0.13;0.13;;;8.00;99.90;;;;;;5077114;28;20186;-68
2024/04/05 03:18:02;;;;;;;0.10;0.10;;;8.00;99.90;;;;;;5069700;28;20266;-67
2024/04/05 03:20:28;;;;;;;0.17;0.17;;;8.00;99.90;;;;;;5069117;28;20178;-68
2024/04/05 03:22:54;;;;;;;0.53;0.43;;;8.00;99.90;;;;;;5069893;28;20178;-67
2024/04/05 03:25:20;;;;;;;0.40;0.40;;;8.00;99.90;;;;;;5070174;28;20420;-67
2024/04/05 03:27:47;;;;;;;1.07;0.20;;;8.20;99.90;;;;;;5069548;28;20252;-67
2024/04/05 03:30:12;;;;;;;0.20;0.20;;;8.20;99.90;;;;;;5077642;28;20209;-67
2024/04/05 03:32:38;;;;;;;0.10;0.10;;;8.20;99.90;;;;;;5069704;28;20598;-67
2024/04/05 03:35:06;;;;;;;0.20;0.20;;;8.20;99.90;;;;;;5077974;28;20182;-67
2024/04/05 03:37:36;;;;;;;0.20;0.20;;;8.20;99.90;;;;;;5069472;28;20215;-67
2024/04/05 03:40:03;;;;;;;0.43;0.43;;;8.20;99.90;;;;;;5069643;28;20187;-67
2024/04/05 03:42:28;;;;;;;0.47;0.47;;;8.10;99.90;;;;;;5069295;28;20251;-66
2024/04/05 03:44:54;;;;;;;0.87;0.50;;;8.10;99.90;;;;;;5069511;28;20210;-68
2024/04/05 03:47:20;;;;;;;1.90;0.60;;;8.00;99.90;;;;;;5069323;28;20525;-67
2024/04/05 03:49:46;;;;;;;0.27;0.27;;;7.90;99.90;;;;;;5068887;28;20239;-68
2024/04/05 03:52:11;;;;;;;0.93;0.63;;;7.90;99.90;;;;;;5069190;28;20178;-67
2024/04/05 03:54:37;;;;;;;0.10;0.10;;;7.90;99.90;;;;;;5069424;28;20681;-67
2024/04/05 03:57:03;;;;;;;0.30;0.20;;;7.90;99.90;;;;;;5075371;28;20267;-68
2024/04/05 03:59:29;;;;;;;0.50;0.50;;;7.90;99.90;;;;;;5069599;28;20218;-67
2024/04/05 04:01:55;;;;;;;0.10;0.10;;;8.00;99.90;;;;;;5069523;28;20214;-68
2024/04/05 04:04:24;;;;;;;0.20;0.20;;;8.00;99.90;;;;;;5069213;28;20210;-68
2024/04/05 04:06:50;;;;;;;0.10;0.10;;;7.90;99.90;;;;;;5069367;28;20351;-67
2024/04/05 04:09:17;;;;;;;0.10;0.10;;;7.90;99.90;;;;;;5069583;28;20686;-68
2024/04/05 04:11:46;;;;;;;0.20;0.20;;;7.90;99.90;;;;;;5076582;28;20189;-67
2024/04/05 04:14:13;;;;;;;0.40;0.40;;;7.90;99.90;;;;;;5077578;28;20224;-67
2024/04/05 04:16:42;;;;;;;0.20;0.20;;;7.90;99.90;;;;;;5069325;28;20183;-67
2024/04/05 04:19:10;;;;;;;0.60;0.60;;;7.90;99.90;;;;;;5068653;28;20193;-67
2024/04/05 04:21:36;;;;;;;0.40;0.30;;;7.90;99.90;;;;;;5069674;28;20287;-66
2024/04/05 04:24:02;;;;;;;0.30;0.30;;;7.90;99.90;;;;;;5069175;28;20700;-67
2024/04/05 04:26:28;;;;;;;0.10;0.10;;;7.90;99.90;;;;;;5069054;28;20189;-67
2024/04/05 04:28:53;;;;;;;0.20;0.20;;;8.00;99.90;;;;;;5069126;28;20560;-68
2024/04/05 04:31:23;;;;;;;0.10;0.10;;;8.00;99.90;;;;;;5069128;28;20243;-67
2024/04/05 04:33:50;;;;;;;0.30;0.20;;;8.00;99.90;;;;;;5074705;28;20204;-67
2024/04/05 04:36:18;;;;;;;0.20;0.20;;;7.90;99.90;;;;;;5071425;28;20187;-67
2024/04/05 04:38:44;;;;;;;0.10;0.10;;;7.90;99.90;;;;;;5069253;28;20213;-66
2024/04/05 04:41:12;;;;;;;0.10;0.10;;;7.90;99.90;;;;;;5068730;28;20190;-67
2024/04/05 04:43:39;;;;;;;0.20;0.20;;;7.90;99.90;;;;;;5061201;28;20618;-67
2024/04/05 04:46:04;;;;;;;0.50;0.40;;;7.90;99.90;;;;;;5069321;28;20186;-66
2024/04/05 04:48:30;;;;;;;0.27;0.27;;;7.90;99.90;;;;;;5068772;28;20210;-66
2024/04/05 04:50:56;;;;;;;0.23;0.23;;;7.90;99.90;;;;;;5068450;28;20187;-67
2024/04/05 04:53:21;;;;;;;0.20;0.20;;;7.90;99.90;;;;;;5068664;28;20669;-67
2024/04/05 04:55:47;;;;;;;0.30;0.30;;;7.90;99.90;;;;;;5068864;28;20590;-67
2024/04/05 04:58:17;;;;;;;0.30;0.23;;;7.90;99.90;;;;;;5068826;28;20260;-66
2024/04/05 05:00:44;;;;;;;0.27;0.27;;;7.90;99.90;;;;;;5068457;28;20749;-66
2024/04/05 05:03:10;;;;;;;1.23;0.50;;;7.90;99.90;;;;;;5070538;28;20265;-67
2024/04/05 05:05:35;;;;;;;0.33;0.33;;;7.90;99.90;;;;;;5063134;28;20261;-67
2024/04/05 05:08:01;;;;;;;0.53;0.53;;;7.90;99.90;;;;;;5071200;28;20575;-67
2024/04/05 05:10:26;;;;;;;0.13;0.13;;;7.90;99.90;;;;;;5071282;28;20688;-67
2024/04/05 05:12:52;;;;;;;0.43;0.43;;;7.90;99.90;;;;;;5071946;28;21052;-66
2024/04/05 05:15:17;;;;;;;0.27;0.27;;;7.90;99.90;;;;;;5071340;28;20434;-67
2024/04/05 05:17:43;;;;;;;0.20;0.20;;;7.90;99.90;;;;;;5071753;28;20210;-66
2024/04/05 05:20:11;;;;;;;0.20;0.20;;;7.90;99.90;;;;;;5069457;28;20256;-66
2024/04/05 05:22:37;;;;;;;0.33;0.33;;;7.90;99.90;;;;;;5063656;28;20187;-67
2024/04/05 05:25:03;;;;;;;0.20;0.20;;;7.90;99.90;;;;;;5071193;28;20221;-68
2024/04/05 05:27:28;;;;;;;0.33;0.33;;;8.00;99.90;;;;;;5070429;28;20214;-67
2024/04/05 05:29:58;;;;;;;0.37;0.37;;;7.90;99.90;;;;;;5070881;28;20175;-67
2024/04/05 05:32:23;;;;;;;1.30;0.77;;;8.00;99.90;;;;;;5079891;28;20186;-67
2024/04/05 05:34:49;;;;;;;0.20;0.20;;;8.00;99.90;;;;;;5070630;28;20185;-67
2024/04/05 05:37:14;;;;;;;0.40;0.40;;;8.10;99.90;;;;;;5070680;28;20206;-68
2024/04/05 05:39:40;;;;;;;0.90;0.70;;;8.10;99.90;;;;;;5077136;28;20175;-67
2024/04/05 05:42:06;;;;;;;1.13;0.67;;;8.20;99.90;;;;;;5071915;28;20202;-67
2024/04/05 05:44:32;;;;;;;0.20;0.20;;;8.20;99.90;;;;;;5069675;28;20263;-67
2024/04/05 05:46:58;;;;;;;1.13;0.60;;;8.20;99.90;;;;;;5070977;28;20198;-66
2024/04/05 05:49:23;;;;;;;0.27;0.27;;;8.30;99.90;;;;;;5070180;28;20178;-66
2024/04/05 05:51:49;;;;;;;0.30;0.30;;;8.30;99.90;;;;;;5071252;28;20672;-68
2024/04/05 05:54:15;;;;;;;3.00;1.83;;;8.30;99.90;;;;;;5071041;28;20673;-67
2024/04/05 05:56:41;;;;;;;0.50;0.50;;;8.30;99.90;;;;;;5071260;28;20182;-67
2024/04/05 05:59:06;;;;;;;0.43;0.40;;;8.30;99.90;;;;;;5070700;28;20397;-66
2024/04/05 06:01:32;;;;;;;0.40;0.40;;;8.30;99.90;;;;;;5070841;28;20186;-67
2024/04/05 06:04:00;;;;;;;0.40;0.40;;;8.30;99.90;;;;;;5070734;28;20210;-67
2024/04/05 06:06:26;;;;;;;0.23;0.23;;;8.40;99.90;;;;;;5070459;28;20688;-66
2024/04/05 06:08:52;;;;;;;0.40;0.40;;;8.60;99.90;;;;;;5070813;28;20194;-67
2024/04/05 06:11:17;;;;;;;1.73;1.40;;;8.70;99.90;;;;;;5070148;28;20685;-68
2024/04/05 06:13:43;;;;;;;0.20;0.20;;;8.80;99.90;;;;;;5070782;28;20281;-68
2024/04/05 06:16:09;;;;;;;0.50;0.50;;;8.90;99.90;;;;;;5070703;28;20182;-68
2024/04/05 06:18:34;;;;;;;0.53;0.53;;;9.00;99.90;;;;;;5070284;28;20352;-68
2024/04/05 06:21:00;;;;;;;0.73;0.53;;;9.10;99.90;;;;;;5070002;28;20247;-66
2024/04/05 06:23:26;;;;;;;0.40;0.40;;;9.10;99.90;;;;;;5070435;28;20210;-67
2024/04/05 06:25:56;;;;;;;1.30;0.80;;;9.20;99.90;;;;;;5070405;28;20184;-68
2024/04/05 06:28:22;;;;;;;0.67;0.67;;;9.30;99.90;;;;;;5069968;28;20212;-67
2024/04/05 06:30:47;;;;;;;0.87;0.50;;;9.30;99.90;;;;;;5069969;28;20186;-66
2024/04/05 06:33:13;;;;;;;0.13;0.13;;;9.40;99.90;;;;;;5070140;28;20186;-66
2024/04/05 06:35:39;;;;;;;0.50;0.50;;;9.40;99.90;;;;;;5073902;28;20197;-67
2024/04/05 06:38:05;;;;;;;0.33;0.33;;;9.50;99.90;;;;;;5073991;28;20520;-67
2024/04/05 06:40:31;;;;;;;0.67;0.67;;;9.50;99.90;;;;;;5069615;28;20182;-66
2024/04/05 06:42:57;;;;;;;0.40;0.40;;;9.50;99.90;;;;;;5069855;28;20569;-67
2024/04/05 06:45:22;;;;;;;0.20;0.20;;;9.60;99.90;;;;;;5070068;28;20184;-66
2024/04/05 06:47:49;;;;;;;2.10;1.17;;;9.60;99.90;;;;;;5069603;28;20205;-67
2024/04/05 06:50:15;;;;;;;0.43;0.30;;;9.70;99.90;;;;;;5069636;28;20209;-67
2024/04/05 06:52:40;;;;;;;1.30;0.47;;;9.80;99.90;;;;;;5078118;28;20181;-67
2024/04/05 06:55:07;;;;;;;1.07;0.80;;;9.90;99.90;;;;;;5078220;28;20179;-67
2024/04/05 06:57:33;;;;;;;1.80;1.20;;;10.00;99.90;;;;;;5069464;28;20195;-65
2024/04/05 06:59:59;;;;;;;1.20;1.00;;;10.10;99.90;;;;;;5069173;28;20530;-66
2024/04/05 07:02:24;;;;;;;2.10;0.77;;;10.20;99.90;;;;;;5069363;28;20190;-66
2024/04/05 07:04:50;;;;;;;1.10;0.73;;;10.40;99.90;;;;;;5069520;28;20210;-66
2024/04/05 07:07:15;;;;;;;1.13;1.03;;;10.60;99.90;;;;;;5069381;28;20198;-66
2024/04/05 07:09:42;;;;;;;1.30;0.80;;;10.80;99.90;;;;;;5077580;28;20199;-66
2024/04/05 07:12:09;;;;;;;0.93;0.73;;;11.00;99.90;;;;;;5069553;28;20202;-65
2024/04/05 07:14:34;;;;;;;0.30;0.23;;;11.10;99.90;;;;;;5069330;28;20210;-67
2024/04/05 07:17:01;;;;;;;3.13;0.87;;;11.30;99.90;;;;;;5075975;28;20679;-65
2024/04/05 07:19:26;;;;;;;0.70;0.40;;;11.50;99.90;;;;;;5070177;28;20182;-66
2024/04/05 07:21:52;;;;;;;0.83;0.50;;;11.60;99.90;;;;;;5069325;28;20602;-66
2024/04/05 07:24:18;;;;;;;0.40;0.40;;;11.70;99.90;;;;;;5069080;28;20265;-66
2024/04/05 07:26:43;;;;;;;1.13;1.03;;;12.00;99.90;;;;;;5068610;28;20605;-66
2024/04/05 07:29:10;;;;;;;1.30;0.37;;;12.20;99.90;;;;;;5068657;28;20223;-67
2024/04/05 07:31:36;;;;;;;0.53;0.50;;;12.30;99.90;;;;;;5068964;28;20603;-66
2024/04/05 07:34:03;;;;;;;0.70;0.57;;;12.30;99.90;;;;;;5069294;28;20216;-65
2024/04/05 07:36:29;;;;;;;1.57;1.10;;;12.30;99.90;;;;;;5077186;28;20545;-67
2024/04/05 07:38:55;;;;;;;2.87;0.90;;;12.40;99.90;;;;;;5068568;28;20185;-67
2024/04/05 07:41:21;;;;;;;0.83;0.37;;;12.50;99.90;;;;;;5068663;28;20211;-66
2024/04/05 07:43:46;;;;;;;3.37;0.83;;;12.60;99.90;;;;;;5067717;28;20663;-65
2024/04/05 07:46:13;;;;;;;2.23;0.97;;;12.60;99.90;;;;;;5067440;28;20368;-67
2024/04/05 07:48:38;;;;;;;1.40;1.00;;;12.60;99.90;;;;;;5079065;28;20305;-66
2024/04/05 07:51:04;;;;;;;3.27;0.97;;;12.60;99.90;;;;;;5085273;28;20205;-67
2024/04/05 07:53:30;;;;;;;0.37;0.30;;;12.50;99.90;;;;;;5082136;28;20185;-66
2024/04/05 07:55:55;;;;;;;0.90;0.60;;;12.50;99.90;;;;;;5081138;28;20551;-66
2024/04/05 07:58:22;;;;;;;0.83;0.50;;;12.50;99.90;;;;;;5080377;28;20201;-67
2024/04/05 08:00:48;;;;;;;3.30;0.77;;;12.50;99.90;;;;;;5085186;28;20186;-67
2024/04/05 08:03:14;;;;;;;1.20;1.10;;;12.60;99.90;;;;;;5085916;28;20189;-66
2024/04/05 08:05:40;;;;;;;0.50;0.37;;;12.70;99.90;;;;;;5068753;28;20179;-65
2024/04/05 08:08:06;;;;;;;1.73;0.40;;;12.80;99.90;;;;;;5068716;28;20225;-66
2024/04/05 08:10:31;;;;;;;0.60;0.60;;;12.80;99.90;;;;;;5068258;28;20212;-66
2024/04/05 08:12:58;;;;;;;0.60;0.40;;;12.90;99.90;;;;;;5068879;28;20178;-65
2024/04/05 08:15:24;;;;;;;0.60;0.53;;;12.90;99.90;;;;;;5068598;28;20225;-66
2024/04/05 08:17:50;;;;;;;2.23;1.33;;;12.90;99.90;;;;;;5076002;28;20202;-66
2024/04/05 08:20:16;;;;;;;0.40;0.40;;;12.90;99.90;;;;;;5076417;28;20189;-66
2024/04/05 08:22:41;;;;;;;2.00;1.03;;;12.90;99.90;;;;;;5068663;28;20555;-67
2024/04/05 08:25:07;;;;;;;0.43;0.40;;;13.00;99.90;;;;;;5068436;28;20280;-66
2024/04/05 08:27:34;;;;;;;0.70;0.60;;;13.00;99.90;;;;;;5066819;28;20433;-66
2024/04/05 08:29:59;;;;;;;1.80;1.33;;;13.20;99.90;;;;;;5066325;28;20189;-67
2024/04/05 08:32:25;;;;;;;0.37;0.37;;;13.30;99.90;;;;;;5067187;28;20524;-66
2024/04/05 08:34:51;;;;;;;1.07;0.67;;;13.50;99.90;;;;;;5067998;28;20248;-66
2024/04/05 08:37:16;;;;;;;2.63;1.17;;;13.80;99.90;;;;;;5069403;28;20619;-66
2024/04/05 08:39:43;;;;;;;0.70;0.50;;;14.30;99.90;;;;;;5071111;28;20229;-66
2024/04/05 08:42:12;;;;;;;2.93;1.03;;;14.70;99.90;;;;;;5071821;28;20255;-66
2024/04/05 08:44:39;;;;;;;2.27;0.80;;;15.30;99.90;;;;;;5063836;28;20692;-67
2024/04/05 08:47:10;;;;;;;2.53;0.50;;;15.90;99.90;;;;;;5070917;28;20190;-67
2024/04/05 08:49:36;;;;;;;0.40;0.30;;;16.10;99.90;;;;;;5071469;28;20216;-66
2024/04/05 08:52:03;;;;;;;0.97;0.80;;;16.00;99.90;;;;;;5072025;28;20178;-66
2024/04/05 08:54:29;;;;;;;2.60;0.50;;;16.10;99.90;;;;;;5072007;28;20654;-66
2024/04/05 08:56:56;;;;;;;0.93;0.50;;;16.30;99.90;;;;;;5071973;28;20194;-67
2024/04/05 08:59:22;;;;;;;0.93;0.70;;;16.50;99.90;;;;;;5071402;28;20697;-67
2024/04/05 09:01:51;;;;;;;0.33;0.33;;;16.80;99.90;;;;;;5070655;28;20191;-68
2024/04/05 09:04:17;;;;;;;0.50;0.50;;;17.20;99.90;;;;;;5071713;28;20344;-68
2024/04/05 09:06:43;;;;;;;1.80;0.70;;;17.90;99.90;;;;;;5080277;28;20312;-67
2024/04/05 09:09:09;;;;;;;0.77;0.77;;;18.20;99.90;;;;;;5071339;28;20273;-67
2024/04/05 09:11:37;;;;;;;0.43;0.33;;;18.30;99.90;;;;;;5071552;28;20178;-67
2024/04/05 09:14:03;;;;;;;0.97;0.30;;;18.20;99.90;;;;;;5071867;28;20189;-67
2024/04/05 09:16:31;;;;;;;0.30;0.30;;;18.40;99.90;;;;;;5071510;28;20182;-66
2024/04/05 09:19:04;;;;;;;0.60;0.50;;;18.30;99.90;;;;;;5071108;28;20175;-66
2024/04/05 09:21:30;;;;;;;0.33;0.23;;;18.30;99.90;;;;;;5071222;28;20197;-65
2024/04/05 09:23:57;;;;;;;0.80;0.30;;;18.10;99.90;;;;;;5077066;28;20178;-66
2024/04/05 09:26:24;;;;;;;0.40;0.30;;;18.00;99.90;;;;;;5073956;28;20186;-68
2024/04/05 09:29:07;;;;;;;1.47;0.80;;;18.10;99.90;;;;;;5078398;28;20195;-66
2024/04/05 09:31:33;;;;;;;1.53;0.50;;;18.00;99.90;;;;;;5071230;28;20190;-67
2024/04/05 09:34:18;;;;;;;2.70;1.03;;;18.30;99.90;;;;;;5071180;28;20223;-67
2024/04/05 09:36:44;;;;;;;0.57;0.57;;;18.60;99.90;;;;;;5070410;28;20642;-65
2024/04/05 09:39:14;;;;;;;1.03;0.50;;;18.60;99.90;;;;;;5070719;28;20181;-68
2024/04/05 09:41:40;;;;;;;1.23;0.35;;;18.60;99.90;;;;;;5063313;28;20414;-67
2024/04/05 09:44:07;;;;;;;0.70;0.40;;;18.40;99.90;;;;;;5071551;28;20182;-66
2024/04/05 09:46:34;;;;;;;0.23;0.23;;;18.30;99.90;;;;;;5071071;28;20209;-67
2024/04/05 09:49:01;;;;;;;0.30;0.13;;;18.40;99.90;;;;;;5069957;28;20274;-66
2024/04/05 09:51:42;;;;;;;0.37;0.30;;;18.40;99.90;;;;;;5071115;28;20182;-67
2024/04/05 09:54:10;;;;;;;0.20;0.20;;;18.60;99.90;;;;;;5071371;28;20589;-66
2024/04/05 09:56:38;;;;;;;0.30;0.30;;;18.70;99.90;;;;;;5069693;28;20175;-66
2024/04/05 09:59:14;;;;;;;0.43;0.33;;;18.80;99.90;;;;;;5070675;28;20563;-67
2024/04/05 10:01:41;;;;;;;0.30;0.30;;;18.80;99.90;;;;;;5062351;28;20170;-67
2024/04/05 10:04:07;;;;;;;0.23;0.20;;;19.20;99.90;;;;;;5061193;28;20301;-67
2024/04/05 10:06:38;;;;;;;1.03;0.30;;;19.30;99.90;;;;;;5069788;28;20252;-68
2024/04/05 10:09:25;;;;;;;0.30;0.20;;;19.30;99.90;;;;;;5069335;28;20182;-66
2024/04/05 10:11:51;;;;;;;0.40;0.20;;;19.40;99.90;;;;;;5064172;28;20182;-68
2024/04/05 10:14:20;;;;;;;2.83;0.40;;;19.20;99.90;;;;;;5070504;28;20205;-69
2024/04/05 10:16:47;;;;;;;0.47;0.20;;;19.00;99.90;;;;;;5070654;28;20698;-67
2024/04/05 10:19:13;;;;;;;1.40;0.53;;;19.00;99.90;;;;;;5070011;28;20320;-67
2024/04/05 10:21:38;;;;;;;0.40;0.20;;;19.10;99.90;;;;;;5073833;28;20576;-68
2024/04/05 10:24:07;;;;;;;0.70;0.40;;;19.30;99.90;;;;;;5075525;28;20178;-67
2024/04/05 10:26:37;;;;;;;0.30;0.20;;;19.40;99.90;;;;;;5070135;28;20187;-67
2024/04/05 10:29:04;;;;;;;0.00;0.00;;;19.40;99.90;;;;;;5076841;28;20235;-67
2024/04/05 10:31:34;;;;;;;0.93;0.20;;;19.20;99.90;;;;;;5070088;28;20281;-68
2024/04/05 10:34:03;;;;;;;1.80;0.20;;;18.90;99.90;;;;;;5070586;28;20205;-67
2024/04/05 10:36:32;;;;;;;0.60;0.40;;;18.70;99.90;;;;;;5069975;28;20189;-66
2024/04/05 10:39:00;;;;;;;3.30;0.30;;;18.80;99.90;;;;;;5069674;28;20255;-67
2024/04/05 10:41:26;;;;;;;0.10;0.10;;;18.80;99.90;;;;;;5069914;28;20240;-68
2024/04/05 10:44:05;;;;;;;0.20;0.20;;;18.80;99.90;;;;;;5069268;28;20190;-67
2024/04/05 10:46:31;;;;;;;0.63;0.20;;;18.60;99.90;;;;;;5068815;28;20193;-67
2024/04/05 10:48:58;;;;;;;0.23;0.23;;;18.40;99.90;;;;;;5066659;28;20189;-67
2024/04/05 10:51:24;;;;;;;0.50;0.50;;;18.40;99.90;;;;;;5069733;28;20721;-66
2024/04/05 10:53:49;;;;;;;1.10;0.53;;;18.50;99.90;;;;;;5069819;28;20297;-67
2024/04/05 10:56:15;;;;;;;0.20;0.20;;;18.40;99.90;;;;;;5070276;28;20177;-70
2024/04/05 10:58:41;;;;;;;0.30;0.30;;;18.30;99.90;;;;;;5073201;28;20194;-66
2024/04/05 11:01:07;;;;;;;0.20;0.20;;;18.20;99.90;;;;;;5073510;28;20195;-66
2024/04/05 11:03:33;;;;;;;2.13;0.27;;;18.10;99.90;;;;;;5069808;28;20186;-67
2024/04/05 11:06:05;;;;;;;0.30;0.30;;;18.20;99.90;;;;;;5069423;28;20186;-67
2024/04/05 11:08:32;;;;;;;0.30;0.27;;;18.20;99.90;;;;;;5069659;28;20295;-67
2024/04/05 11:10:58;;;;;;;0.70;0.20;;;18.10;99.90;;;;;;5069175;28;20178;-67
2024/04/05 11:13:26;;;;;;;1.27;0.50;;;18.10;99.90;;;;;;5068106;28;20684;-67
2024/04/05 11:16:04;;;;;;;0.23;0.10;;;18.00;99.90;;;;;;5069571;28;20718;-66
2024/04/05 11:18:37;;;;;;;0.27;0.23;;;17.90;99.90;;;;;;5069594;28;20198;-66
2024/04/05 11:21:13;;;;;;;0.60;0.30;;;17.90;99.90;;;;;;5069155;28;20178;-67
2024/04/05 11:23:51;;;;;;;0.40;0.27;;;17.70;99.90;;;;;;5069455;28;20185;-70
2024/04/05 11:26:30;;;;;;;0.40;0.20;;;17.60;99.90;;;;;;5069264;28;20186;-66
2024/04/05 11:29:00;;;;;;;0.57;0.20;;;17.50;99.90;;;;;;5068978;28;20182;-67
2024/04/05 11:31:26;;;;;;;0.40;0.30;;;17.50;99.90;;;;;;5068121;28;20240;-67
2024/04/05 11:33:55;;;;;;;0.67;0.40;;;17.40;99.90;;;;;;5069672;28;20194;-67
2024/04/05 11:36:21;;;;;;;0.53;0.40;;;17.40;99.90;;;;;;5068881;28;20186;-68
2024/04/05 11:38:51;;;;;;;0.20;0.20;;;17.40;99.90;;;;;;5069226;28;20198;-68
2024/04/05 11:41:17;;;;;;;0.13;0.10;;;17.40;99.90;;;;;;5068488;28;20193;-67
2024/04/05 11:43:43;;;;;;;0.53;0.30;;;17.30;99.90;;;;;;5069551;28;20669;-70
2024/04/05 11:46:08;;;;;;;0.17;0.17;;;17.30;99.90;;;;;;5069259;28;20687;-66
2024/04/05 11:48:34;;;;;;;0.40;0.30;;;17.20;99.90;;;;;;5068837;28;20209;-67
2024/04/05 11:51:00;;;;;;;0.50;0.30;;;17.10;99.90;;;;;;5068521;28;20707;-67
2024/04/05 11:53:26;;;;;;;0.20;0.20;;;17.10;99.90;;;;;;5068959;28;20186;-66
2024/04/05 11:55:52;;;;;;;0.50;0.33;;;17.00;99.90;;;;;;5069328;28;20186;-67
2024/04/05 11:58:17;;;;;;;0.30;0.30;;;17.00;99.90;;;;;;5068668;28;20395;-67
2024/04/05 12:00:48;;;;;;;0.50;0.37;;;16.90;99.90;;;;;;5072428;28;20265;-66
2024/04/05 12:03:14;;;;;;;1.23;0.40;;;16.90;99.90;;;;;;5072778;28;20195;-67
2024/04/05 12:05:42;;;;;;;0.47;0.40;;;16.90;99.90;;;;;;5068202;28;20175;-66
2024/04/05 12:08:12;;;;;;;0.60;0.40;;;17.10;99.90;;;;;;5068849;28;20230;-67
2024/04/05 12:10:38;;;;;;;0.17;0.10;;;17.00;99.90;;;;;;5068326;28;20269;-68
2024/04/05 12:13:05;;;;;;;0.20;0.20;;;17.10;99.90;;;;;;5080259;28;20661;-67
2024/04/05 12:15:31;;;;;;;0.37;0.20;;;17.30;99.90;;;;;;5072959;28;20206;-66
2024/04/05 12:17:57;;;;;;;0.50;0.20;;;17.50;99.90;;;;;;5072819;28;20194;-67
2024/04/05 12:20:22;;;;;;;0.40;0.20;;;17.60;99.90;;;;;;5072100;28;20182;-67
2024/04/05 12:22:48;;;;;;;0.50;0.40;;;17.70;99.90;;;;;;5072879;28;20294;-67
2024/04/05 12:25:16;;;;;;;0.40;0.20;;;17.70;99.90;;;;;;5071340;28;20187;-66
2024/04/05 12:27:42;;;;;;;0.60;0.50;;;17.80;99.90;;;;;;5064494;28;20205;-67
2024/04/05 12:30:09;;;;;;;0.93;0.30;;;17.70;99.90;;;;;;5072359;28;20182;-66
2024/04/05 12:32:35;;;;;;;0.87;0.40;;;17.70;99.90;;;;;;5072389;28;20198;-67
2024/04/05 12:35:00;;;;;;;0.47;0.30;;;17.70;99.90;;;;;;5072689;28;20289;-66
2024/04/05 12:37:27;;;;;;;0.43;0.33;;;17.60;99.90;;;;;;5072307;28;20294;-66
2024/04/05 12:39:56;;;;;;;0.20;0.20;;;17.60;99.90;;;;;;5072071;28;20171;-67
2024/04/05 12:42:22;;;;;;;0.20;0.20;;;17.50;99.90;;;;;;5072049;28;20206;-68
2024/04/05 12:44:50;;;;;;;0.53;0.50;;;17.60;99.90;;;;;;5072344;28;20773;-66
2024/04/05 12:47:15;;;;;;;0.10;0.10;;;17.60;99.90;;;;;;5072283;28;20281;-67
2024/04/05 12:49:42;;;;;;;0.20;0.17;;;17.70;99.90;;;;;;5071792;28;20261;-67